Time;durP1;ratioP1;P1;durP2;ratioP2;P2;SDS_P1;SDS_P2;PMS_P1;PMS_P2;Temp;Humidity;BMP_temperature;BMP_pressure;BME280_temperature;BME280_humidity;BME280_pressure;Samples;Min_cycle;Max_cycle;Signal;HPM_P1;HPM_P2
2023/04/27 00:02:10;;;;;;;5.43;3.67;;;;;;;6.96;60.90;100662.91;5054988;28;20057;-60
2023/04/27 00:04:37;;;;;;;5.45;4.20;;;;;;;6.82;61.56;100654.38;5050882;28;20064;-60
2023/04/27 00:07:06;;;;;;;6.50;4.03;;;;;;;6.74;61.64;100663.31;5054607;28;20052;-61
2023/04/27 00:09:33;;;;;;;5.93;3.60;;;;;;;6.67;61.68;100657.22;5052599;28;20397;-61
2023/04/27 00:12:02;;;;;;;6.15;4.22;;;;;;;6.59;61.73;100655.06;5034675;28;20064;-61
2023/04/27 00:14:30;;;;;;;8.45;4.30;;;;;;;6.50;61.53;100658.41;5035098;28;20049;-60
2023/04/27 00:16:57;;;;;;;9.20;4.10;;;;;;;6.44;61.97;100658.72;5034782;28;20060;-60
2023/04/27 00:19:24;;;;;;;5.97;4.20;;;;;;;6.37;61.90;100658.19;5046392;28;20059;-59
2023/04/27 00:21:51;;;;;;;6.25;3.47;;;;;;;6.27;62.14;100661.81;5054165;28;20115;-60
2023/04/27 00:24:20;;;;;;;5.72;3.67;;;;;;;6.16;62.17;100657.41;5054212;28;20053;-60
2023/04/27 00:26:47;;;;;;;8.15;4.40;;;;;;;6.02;62.50;100657.97;5054458;28;20510;-60
2023/04/27 00:29:15;;;;;;;7.00;4.25;;;;;;;5.86;62.68;100659.13;5054219;28;20072;-60
2023/04/27 00:31:42;;;;;;;7.78;4.00;;;;;;;5.77;63.11;100660.75;5050581;28;20048;-61
2023/04/27 00:34:09;;;;;;;8.55;4.30;;;;;;;5.76;63.03;100659.94;5045831;28;20502;-60
2023/04/27 00:36:36;;;;;;;6.60;4.10;;;;;;;5.73;63.40;100654.94;5053775;28;20055;-60
2023/04/27 00:39:05;;;;;;;4.70;3.63;;;;;;;5.67;63.16;100667.97;5054116;28;20057;-59
2023/04/27 00:41:37;;;;;;;6.75;4.32;;;;;;;5.61;63.29;100666.31;5053737;28;20053;-59
2023/04/27 00:44:04;;;;;;;7.30;4.63;;;;;;;5.56;63.44;100660.75;5053524;28;20167;-59
2023/04/27 00:46:32;;;;;;;5.88;3.80;;;;;;;5.48;63.84;100664.06;5054166;28;20049;-59
2023/04/27 00:49:00;;;;;;;5.60;3.47;;;;;;;5.42;63.94;100671.56;5050133;28;20505;-59
2023/04/27 00:51:29;;;;;;;6.88;3.88;;;;;;;5.37;64.09;100665.19;5053585;28;20064;-60
2023/04/27 00:53:58;;;;;;;7.85;4.50;;;;;;;5.33;63.54;100669.59;5053925;28;20064;-59
2023/04/27 00:56:25;;;;;;;4.53;3.58;;;;;;;5.23;63.85;100674.00;5049571;28;20056;-61
2023/04/27 00:58:53;;;;;;;11.30;4.18;;;;;;;5.20;63.85;100677.31;5052443;28;20057;-61
2023/04/27 01:01:21;;;;;;;6.20;4.35;;;;;;;5.16;63.85;100678.94;5053453;28;20045;-60
2023/04/27 01:03:48;;;;;;;7.18;4.18;;;;;;;5.07;65.03;100675.09;5051457;28;20445;-59
2023/04/27 01:06:16;;;;;;;7.68;4.00;;;;;;;5.05;65.02;100688.31;5053632;28;20064;-60
2023/04/27 01:08:43;;;;;;;6.30;4.50;;;;;;;5.04;64.27;100681.97;5040010;28;20058;-59
2023/04/27 01:11:10;;;;;;;6.90;4.38;;;;;;;5.00;65.03;100688.31;5038768;28;20056;-59
2023/04/27 01:13:38;;;;;;;5.75;4.00;;;;;;;4.95;64.77;100694.63;5053313;28;20057;-59
2023/04/27 01:16:06;;;;;;;6.55;3.72;;;;;;;4.87;64.70;100695.16;5051719;28;20588;-59
2023/04/27 01:18:34;;;;;;;7.45;4.07;;;;;;;4.82;64.93;100687.69;5048540;28;20075;-59
2023/04/27 01:21:01;;;;;;;7.50;4.25;;;;;;;4.78;64.22;100702.31;5053430;28;20409;-58
2023/04/27 01:23:29;;;;;;;6.47;4.28;;;;;;;4.73;65.14;100700.38;5053158;28;20060;-58
2023/04/27 01:26:00;;;;;;;7.82;3.90;;;;;;;4.67;64.24;100696.75;5053510;28;20055;-59
2023/04/27 01:28:27;;;;;;;6.93;3.75;;;;;;;4.63;64.37;100697.56;5053202;28;20401;-58
2023/04/27 01:30:54;;;;;;;6.25;4.32;;;;;;;4.60;64.38;100709.13;5053326;28;20052;-60
2023/04/27 01:33:21;;;;;;;7.32;4.70;;;;;;;4.52;65.61;100704.16;5046283;28;20067;-59
2023/04/27 01:35:49;;;;;;;9.07;4.85;;;;;;;4.46;65.97;100706.03;5033461;28;20057;-60
2023/04/27 01:38:16;;;;;;;7.85;4.40;;;;;;;4.39;65.66;100703.53;5032790;28;20072;-59
2023/04/27 01:40:45;;;;;;;9.48;4.93;;;;;;;4.36;66.31;100701.28;5033154;28;20068;-59
2023/04/27 01:43:15;;;;;;;9.65;6.22;;;;;;;4.32;66.15;100708.44;5032924;28;20057;-59
2023/04/27 01:45:42;;;;;;;6.15;4.35;;;;;;;4.33;66.23;100706.53;5032588;28;20137;-59
2023/04/27 01:48:10;;;;;;;10.52;5.25;;;;;;;4.25;65.79;100703.16;5032890;28;20045;-59
2023/04/27 01:50:37;;;;;;;6.70;4.50;;;;;;;4.24;65.23;100717.19;5052415;28;20056;-60
2023/04/27 01:53:04;;;;;;;5.63;4.40;;;;;;;4.16;66.12;100699.25;5052558;28;20493;-60
2023/04/27 01:55:32;;;;;;;7.85;5.25;;;;;;;4.18;65.10;100707.25;5052974;28;20057;-59
2023/04/27 01:58:00;;;;;;;8.95;4.50;;;;;;;4.12;65.41;100711.09;5052538;28;20045;-59
2023/04/27 02:00:28;;;;;;;10.35;5.30;;;;;;;4.09;66.20;100711.59;5052362;28;20053;-59
2023/04/27 02:02:56;;;;;;;5.63;4.20;;;;;;;4.04;66.27;100718.75;5051473;28;20057;-59
2023/04/27 02:05:23;;;;;;;8.50;4.93;;;;;;;3.97;65.58;100712.63;5032250;28;20053;-59
2023/04/27 02:07:50;;;;;;;6.18;4.82;;;;;;;3.97;66.26;100722.81;5032604;28;20060;-60
2023/04/27 02:10:18;;;;;;;7.25;4.90;;;;;;;3.90;66.22;100728.53;5032668;28;20420;-59
2023/04/27 02:12:45;;;;;;;8.00;5.22;;;;;;;3.88;66.61;100721.66;5032321;28;20073;-61
2023/04/27 02:15:16;;;;;;;7.53;4.95;;;;;;;3.85;65.45;100721.06;5032866;28;20045;-59
2023/04/27 02:17:44;;;;;;;7.38;4.78;;;;;;;3.84;66.77;100730.44;5032661;28;20072;-59
2023/04/27 02:20:13;;;;;;;7.72;5.40;;;;;;;3.80;65.58;100737.59;5046341;28;20059;-60
2023/04/27 02:22:42;;;;;;;7.53;4.40;;;;;;;3.79;66.28;100733.16;5052567;28;20061;-59
2023/04/27 02:25:10;;;;;;;8.10;5.03;;;;;;;3.79;66.76;100732.31;5052402;28;20057;-60
2023/04/27 02:27:37;;;;;;;5.70;4.22;;;;;;;3.75;65.73;100739.44;5052729;28;20056;-59
2023/04/27 02:30:06;;;;;;;7.55;4.15;;;;;;;3.69;65.84;100735.00;5053064;28;20485;-59
2023/04/27 02:32:35;;;;;;;7.32;4.47;;;;;;;3.65;65.43;100732.78;5052257;28;20437;-59
2023/04/27 02:35:03;;;;;;;10.25;5.28;;;;;;;3.58;67.23;100732.13;5037869;28;20064;-59
2023/04/27 02:37:30;;;;;;;6.68;4.45;;;;;;;3.54;66.92;100730.19;5045861;28;20067;-59
2023/04/27 02:40:00;;;;;;;8.05;4.60;;;;;;;3.52;66.10;100713.91;5051962;28;20474;-59
2023/04/27 02:42:27;;;;;;;8.75;4.97;;;;;;;3.51;67.39;100720.53;5052070;28;20059;-60
2023/04/27 02:44:54;;;;;;;7.28;4.93;;;;;;;3.50;66.46;100726.28;5052447;28;20402;-58
2023/04/27 02:47:23;;;;;;;9.43;6.00;;;;;;;3.42;66.58;100730.31;5052182;28;20397;-60
2023/04/27 02:49:52;;;;;;;8.70;5.05;;;;;;;3.39;67.42;100723.44;5038183;28;20057;-59
2023/04/27 02:52:19;;;;;;;7.93;4.70;;;;;;;3.40;67.10;100730.63;5038309;28;20049;-59
2023/04/27 02:54:46;;;;;;;8.30;5.25;;;;;;;3.43;66.62;100718.25;5052460;28;20398;-59
2023/04/27 02:57:13;;;;;;;10.98;5.63;;;;;;;3.42;67.48;100722.91;5052310;28;20056;-59
2023/04/27 02:59:41;;;;;;;8.55;5.32;;;;;;;3.40;66.59;100727.00;5052964;28;20059;-59
2023/04/27 03:02:08;;;;;;;11.20;6.40;;;;;;;3.38;66.80;100723.69;5052479;28;20053;-59
2023/04/27 03:04:37;;;;;;;9.10;5.38;;;;;;;3.35;67.68;100713.19;5048470;28;20049;-59
2023/04/27 03:07:05;;;;;;;9.95;5.50;;;;;;;3.31;66.46;100712.06;5040902;28;20053;-59
2023/04/27 03:09:33;;;;;;;10.30;5.43;;;;;;;3.30;67.82;100713.13;5032487;28;20045;-59
2023/04/27 03:12:01;;;;;;;10.90;5.45;;;;;;;3.27;67.97;100720.00;5032111;28;20060;-58
2023/04/27 03:14:28;;;;;;;8.75;5.60;;;;;;;3.22;67.87;100712.53;5035811;28;20418;-58
2023/04/27 03:16:56;;;;;;;7.97;5.40;;;;;;;3.26;66.79;100718.34;5036050;28;20405;-59
2023/04/27 03:19:23;;;;;;;8.48;5.25;;;;;;;3.30;67.13;100713.13;5041213;28;20568;-59
2023/04/27 03:21:50;;;;;;;8.48;5.07;;;;;;;3.27;67.44;100708.16;5053601;28;20063;-59
2023/04/27 03:24:20;;;;;;;8.32;4.82;;;;;;;3.24;67.11;100702.09;5055651;28;20056;-59
2023/04/27 03:26:47;;;;;;;8.60;5.50;;;;;;;3.17;66.60;100703.38;5055572;28;20494;-59
2023/04/27 03:29:17;;;;;;;11.65;5.63;;;;;;;3.14;67.55;100701.16;5055518;28;20053;-59
2023/04/27 03:31:44;;;;;;;8.60;5.82;;;;;;;3.09;66.58;100706.59;5055155;28;20068;-59
2023/04/27 03:34:15;;;;;;;9.13;5.10;;;;;;;3.04;66.77;100705.47;5053024;28;20068;-59
2023/04/27 03:36:42;;;;;;;9.50;5.78;;;;;;;3.02;68.20;100706.78;5052747;28;20049;-59
2023/04/27 03:39:10;;;;;;;9.93;5.72;;;;;;;2.97;68.16;100707.56;5055524;28;20474;-59
2023/04/27 03:41:39;;;;;;;9.90;6.20;;;;;;;2.95;67.08;100717.19;5055237;28;20049;-59
2023/04/27 03:44:06;;;;;;;7.65;5.10;;;;;;;2.98;67.50;100713.91;5055465;28;20053;-58
2023/04/27 03:46:34;;;;;;;8.88;5.75;;;;;;;2.94;68.23;100716.34;5055049;28;20053;-58
2023/04/27 03:49:01;;;;;;;12.27;6.63;;;;;;;2.94;67.62;100715.50;5055222;28;20049;-59
2023/04/27 03:51:30;;;;;;;8.35;5.28;;;;;;;2.89;67.75;100718.22;5051346;28;20059;-59
2023/04/27 03:53:58;;;;;;;8.73;5.68;;;;;;;2.89;67.49;100723.72;5040561;28;20407;-59
2023/04/27 03:56:25;;;;;;;10.32;6.00;;;;;;;2.91;67.93;100732.53;5035152;28;20056;-59
2023/04/27 03:58:54;;;;;;;8.30;5.60;;;;;;;2.89;67.43;100731.97;5035007;28;20054;-59
2023/04/27 04:01:21;;;;;;;10.38;5.45;;;;;;;2.86;68.45;100730.56;5034790;28;20053;-59
2023/04/27 04:03:49;;;;;;;12.02;5.82;;;;;;;2.84;67.28;100738.25;5034935;28;20049;-59
2023/04/27 04:06:16;;;;;;;10.35;6.03;;;;;;;2.78;67.91;100740.09;5047071;28;20053;-59
2023/04/27 04:08:43;;;;;;;9.40;5.57;;;;;;;2.80;67.19;100732.41;5054963;28;20402;-59
2023/04/27 04:11:11;;;;;;;9.73;6.10;;;;;;;2.85;67.15;100732.47;5054567;28;20049;-59
2023/04/27 04:13:38;;;;;;;14.20;8.00;;;;;;;2.82;67.28;100737.66;5050509;28;20056;-59
2023/04/27 04:16:09;;;;;;;11.55;6.25;;;;;;;2.79;67.74;100740.91;5054976;28;20328;-59
2023/04/27 04:18:37;;;;;;;11.02;6.15;;;;;;;2.73;68.11;100737.28;5054246;28;20045;-59
2023/04/27 04:21:04;;;;;;;9.55;6.32;;;;;;;2.66;67.80;100742.13;5048410;28;20049;-59
2023/04/27 04:23:32;;;;;;;8.95;5.88;;;;;;;2.69;67.83;100743.53;5052517;28;20053;-59
2023/04/27 04:26:00;;;;;;;10.68;6.50;;;;;;;2.69;68.82;100747.13;5054329;28;20079;-59
2023/04/27 04:28:28;;;;;;;11.38;6.75;;;;;;;2.75;68.12;100746.13;5054397;28;20052;-59
2023/04/27 04:30:55;;;;;;;11.25;6.65;;;;;;;2.77;68.51;100754.94;5054768;28;20060;-59
2023/04/27 04:33:25;;;;;;;13.77;6.55;;;;;;;2.78;67.66;100761.28;5052071;28;20052;-59
2023/04/27 04:35:55;;;;;;;10.18;6.30;;;;;;;2.79;67.61;100761.03;5052094;28;20059;-60
2023/04/27 04:38:23;;;;;;;10.77;6.45;;;;;;;2.83;68.71;100758.56;5054274;28;20056;-59
2023/04/27 04:40:51;;;;;;;9.20;6.03;;;;;;;2.87;68.71;100764.41;5054497;28;20128;-60
2023/04/27 04:43:18;;;;;;;9.80;5.95;;;;;;;2.89;67.98;100764.97;5050244;28;20048;-60
2023/04/27 04:45:46;;;;;;;11.35;6.25;;;;;;;2.92;68.64;100764.44;5051364;28;20057;-60
2023/04/27 04:48:15;;;;;;;12.63;7.15;;;;;;;3.01;68.65;100765.69;5054151;28;20048;-60
2023/04/27 04:50:43;;;;;;;9.65;6.13;;;;;;;3.05;68.16;100762.16;5050076;28;20049;-60
2023/04/27 04:53:11;;;;;;;10.80;6.43;;;;;;;3.11;68.56;100759.44;5033942;28;20057;-59
2023/04/27 04:55:38;;;;;;;10.65;6.18;;;;;;;3.21;67.09;100754.06;5033996;28;20076;-60
2023/04/27 04:58:05;;;;;;;10.20;6.40;;;;;;;3.26;67.43;100748.63;5031918;28;20057;-60
2023/04/27 05:00:32;;;;;;;14.98;7.18;;;;;;;3.31;66.80;100740.41;5030544;28;20068;-59
2023/04/27 05:03:00;;;;;;;14.20;8.02;;;;;;;3.35;67.70;100743.47;5036562;28;20049;-59
2023/04/27 05:05:27;;;;;;;12.50;7.82;;;;;;;3.35;66.71;100760.81;5036569;28;20182;-60
2023/04/27 05:07:56;;;;;;;10.95;7.47;;;;;;;3.40;66.75;100752.63;5047143;28;20409;-59
2023/04/27 05:10:23;;;;;;;11.68;8.00;;;;;;;3.48;66.48;100756.81;5049729;28;20053;-60
2023/04/27 05:12:50;;;;;;;10.80;7.10;;;;;;;3.57;67.57;100754.44;5042127;28;20057;-59
2023/04/27 05:15:18;;;;;;;10.13;6.63;;;;;;;3.63;67.68;100756.13;5050561;28;20052;-62
2023/04/27 05:17:45;;;;;;;12.85;7.22;;;;;;;3.70;66.77;100753.19;5046146;28;20045;-60
2023/04/27 05:20:12;;;;;;;11.27;7.32;;;;;;;3.82;66.47;100764.84;5044526;28;20069;-60
2023/04/27 05:22:40;;;;;;;11.65;6.90;;;;;;;3.93;66.14;100758.34;5049852;28;20064;-59
2023/04/27 05:25:09;;;;;;;11.07;7.30;;;;;;;3.99;67.26;100753.69;5042829;28;20406;-61
2023/04/27 05:27:36;;;;;;;9.98;7.05;;;;;;;4.10;67.22;100758.19;5033156;28;20525;-60
2023/04/27 05:30:04;;;;;;;26.52;8.73;;;;;;;4.18;65.85;100757.72;5038897;28;20049;-59
2023/04/27 05:32:32;;;;;;;12.80;7.65;;;;;;;4.30;65.79;100764.94;5053207;28;20053;-59
2023/04/27 05:34:59;;;;;;;12.32;7.60;;;;;;;4.35;66.52;100765.81;5049101;28;20060;-59
2023/04/27 05:37:26;;;;;;;15.50;8.38;;;;;;;4.48;65.55;100767.28;5033091;28;20049;-59
2023/04/27 05:39:54;;;;;;;11.30;6.88;;;;;;;4.58;66.32;100772.03;5050228;28;20049;-59
2023/04/27 05:42:22;;;;;;;13.60;7.68;;;;;;;4.69;65.74;100779.25;5038866;28;20422;-59
2023/04/27 05:44:49;;;;;;;14.48;7.70;;;;;;;4.72;66.02;100770.44;5049643;28;20049;-59
2023/04/27 05:47:17;;;;;;;10.27;7.22;;;;;;;4.83;65.55;100779.59;5041976;28;20068;-59
2023/04/27 05:49:44;;;;;;;12.38;7.40;;;;;;;5.00;64.99;100780.25;5043636;28;20477;-58
2023/04/27 05:52:11;;;;;;;14.20;7.85;;;;;;;5.07;65.22;100782.75;5052437;28;20053;-58
2023/04/27 05:54:39;;;;;;;14.02;8.60;;;;;;;5.16;64.36;100785.81;5049260;28;20398;-59
2023/04/27 05:57:06;;;;;;;13.35;8.93;;;;;;;5.27;64.23;100793.88;5050544;28;20057;-59
2023/04/27 05:59:34;;;;;;;14.85;7.78;;;;;;;5.37;64.41;100795.00;5040931;28;20516;-59
2023/04/27 06:02:02;;;;;;;11.00;7.15;;;;;;;5.40;64.58;100792.53;5050016;28;20061;-59
2023/04/27 06:04:31;;;;;;;10.63;7.10;;;;;;;5.51;64.70;100796.16;5049933;28;20053;-59
2023/04/27 06:06:58;;;;;;;13.38;7.05;;;;;;;5.65;64.43;100805.59;5047160;28;20413;-59
2023/04/27 06:09:26;;;;;;;11.18;7.57;;;;;;;5.81;64.00;100797.31;5038642;28;20382;-59
2023/04/27 06:11:53;;;;;;;13.43;8.63;;;;;;;5.94;63.90;100787.63;5038416;28;20049;-59
2023/04/27 06:14:20;;;;;;;14.05;8.50;;;;;;;6.09;63.66;100796.00;5048274;28;20059;-59
2023/04/27 06:16:49;;;;;;;12.15;8.30;;;;;;;6.20;63.44;100799.59;5044036;28;20048;-59
2023/04/27 06:19:16;;;;;;;11.68;7.90;;;;;;;6.33;63.60;100799.00;5047397;28;20049;-58
2023/04/27 06:21:43;;;;;;;12.32;7.88;;;;;;;6.45;63.74;100785.72;5044623;28;20053;-58
2023/04/27 06:24:11;;;;;;;11.82;7.88;;;;;;;6.63;63.85;100789.81;5048894;28;20056;-59
2023/04/27 06:26:38;;;;;;;10.65;7.22;;;;;;;6.77;63.93;100784.53;5041380;28;20055;-56
2023/04/27 06:29:06;;;;;;;13.68;8.57;;;;;;;6.93;63.21;100796.41;5036420;28;20045;-57
2023/04/27 06:31:34;;;;;;;12.20;8.80;;;;;;;7.08;63.30;100801.88;5038158;28;20052;-57
2023/04/27 06:34:03;;;;;;;13.77;8.93;;;;;;;7.24;62.78;100791.53;5039017;28;20049;-57
2023/04/27 06:36:30;;;;;;;11.98;8.15;;;;;;;7.38;62.47;100794.53;5043268;28;20063;-57
2023/04/27 06:38:58;;;;;;;12.30;8.48;;;;;;;7.52;62.41;100801.13;5039298;28;20053;-57
2023/04/27 06:41:26;;;;;;;14.23;8.60;;;;;;;7.60;61.82;100796.91;5038450;28;20068;-57
2023/04/27 06:43:54;;;;;;;15.10;7.43;;;;;;;7.73;62.55;100796.28;5045790;28;20061;-57
2023/04/27 06:46:21;;;;;;;13.75;7.60;;;;;;;7.86;61.64;100786.47;5047381;28;20057;-57
2023/04/27 06:48:48;;;;;;;12.48;7.65;;;;;;;8.05;62.29;100786.59;5047361;28;20045;-57
2023/04/27 06:51:17;;;;;;;11.63;6.40;;;;;;;8.12;61.27;100791.81;5051596;28;20057;-58
2023/04/27 06:53:44;;;;;;;11.60;5.72;;;;;;;8.31;59.55;100791.94;5050919;28;20057;-57
2023/04/27 06:56:12;;;;;;;8.15;4.47;;;;;;;8.48;57.21;100781.28;5050511;28;20064;-57
2023/04/27 06:58:39;;;;;;;9.25;5.80;;;;;;;8.63;55.55;100771.97;5050072;28;20599;-57
2023/04/27 07:01:06;;;;;;;6.72;4.82;;;;;;;8.64;52.44;100778.31;5050615;28;20061;-57
2023/04/27 07:03:35;;;;;;;7.85;4.93;;;;;;;8.81;52.03;100775.91;5049163;28;20053;-62
2023/04/27 07:06:02;;;;;;;7.10;4.20;;;;;;;8.91;50.08;100772.19;5050505;28;20521;-62
2023/04/27 07:08:31;;;;;;;8.93;4.78;;;;;;;8.98;50.25;100767.09;5050012;28;20072;-63
2023/04/27 07:10:58;;;;;;;6.90;4.57;;;;;;;9.16;50.18;100771.06;5050395;28;20356;-62
2023/04/27 07:13:25;;;;;;;6.10;4.28;;;;;;;9.61;50.37;100771.53;5043274;28;20087;-62
2023/04/27 07:15:56;;;;;;;5.43;3.90;;;;;;;10.22;48.81;100768.91;5049976;28;20056;-62
2023/04/27 07:18:24;;;;;;;6.53;3.83;;;;;;;10.96;46.55;100768.94;5046415;28;20056;-62
2023/04/27 07:20:52;;;;;;;6.57;3.85;;;;;;;11.73;44.27;100762.50;5049399;28;20535;-62
2023/04/27 07:23:19;;;;;;;5.55;3.70;;;;;;;12.60;42.75;100762.34;5049999;28;20490;-62
2023/04/27 07:25:48;;;;;;;6.85;3.97;;;;;;;13.51;41.10;100758.03;5049729;28;20069;-61
2023/04/27 07:28:15;;;;;;;8.73;4.60;;;;;;;14.12;39.48;100760.84;5050151;28;20064;-62
2023/04/27 07:30:42;;;;;;;6.85;3.72;;;;;;;14.45;37.65;100753.84;5049522;28;20057;-62
2023/04/27 07:33:10;;;;;;;5.93;3.63;;;;;;;15.14;37.26;100752.75;5046134;28;20068;-61
2023/04/27 07:35:39;;;;;;;7.80;3.78;;;;;;;15.62;35.04;100748.66;5048976;28;20056;-57
2023/04/27 07:38:07;;;;;;;7.30;3.70;;;;;;;16.28;35.72;100752.75;5043201;28;20056;-58
2023/04/27 07:40:35;;;;;;;7.72;4.03;;;;;;;17.04;34.23;100752.19;5042233;28;20060;-58
2023/04/27 07:43:04;;;;;;;6.07;3.72;;;;;;;17.35;33.17;100747.97;5046763;28;20049;-58
2023/04/27 07:45:31;;;;;;;5.18;3.78;;;;;;;18.19;32.16;100746.47;5041012;28;20052;-57
2023/04/27 07:48:00;;;;;;;5.45;3.58;;;;;;;18.96;31.89;100743.31;5041900;28;20053;-58
2023/04/27 07:50:28;;;;;;;7.35;4.03;;;;;;;19.97;29.82;100742.78;5045658;28;20056;-58
2023/04/27 07:52:56;;;;;;;4.07;3.33;;;;;;;21.00;29.34;100738.28;5049012;28;20053;-58
2023/04/27 07:55:24;;;;;;;6.45;3.95;;;;;;;22.15;27.54;100731.41;5048623;28;20048;-58
2023/04/27 07:57:52;;;;;;;5.88;3.80;;;;;;;23.06;25.56;100731.97;5047954;28;20063;-58
2023/04/27 08:00:24;;;;;;;7.63;4.50;;;;;;;23.57;25.03;100735.16;5049402;28;20045;-58
2023/04/27 08:02:53;;;;;;;5.60;3.50;;;;;;;24.18;23.71;100732.63;5044294;28;20060;-58
2023/04/27 08:05:20;;;;;;;6.55;3.58;;;;;;;24.54;23.31;100738.44;5040937;28;20164;-58
2023/04/27 08:07:48;;;;;;;5.38;3.15;;;;;;;24.61;22.41;100730.72;5045867;28;20524;-58
2023/04/27 08:10:15;;;;;;;5.45;3.50;;;;;;;24.48;22.29;100735.13;5049860;28;20064;-58
2023/04/27 08:12:42;;;;;;;6.47;3.33;;;;;;;25.11;22.36;100741.31;5047702;28;20056;-59
2023/04/27 08:15:11;;;;;;;5.20;3.10;;;;;;;26.17;21.99;100738.66;5048672;28;20486;-59
2023/04/27 08:17:40;;;;;;;4.95;3.53;;;;;;;27.21;19.77;100732.22;5045074;28;20407;-59
2023/04/27 08:20:10;;;;;;;5.70;3.33;;;;;;;27.74;19.74;100730.06;5049288;28;20072;-59
2023/04/27 08:22:37;;;;;;;5.95;3.70;;;;;;;28.50;19.12;100727.88;5046957;28;20061;-59
2023/04/27 08:25:06;;;;;;;5.70;3.35;;;;;;;29.25;18.62;100728.75;5043017;28;20045;-57
2023/04/27 08:27:33;;;;;;;6.25;3.05;;;;;;;30.28;17.10;100725.06;5045476;28;20413;-57
2023/04/27 08:30:00;;;;;;;6.05;3.20;;;;;;;30.34;16.45;100723.31;5035641;28;20375;-58
2023/04/27 08:32:28;;;;;;;5.78;3.20;;;;;;;29.89;16.61;100728.78;5041859;28;20068;-58
2023/04/27 08:34:56;;;;;;;4.63;3.40;;;;;;;30.97;16.39;100729.22;5044538;28;20094;-58
2023/04/27 08:37:24;;;;;;;3.67;3.17;;;;;;;31.50;15.84;100722.09;5038007;28;20083;-58
2023/04/27 08:39:51;;;;;;;6.20;3.10;;;;;;;32.14;15.50;100719.41;5046445;28;20056;-58
2023/04/27 08:42:18;;;;;;;4.55;2.85;;;;;;;31.71;15.32;100717.00;5046297;28;20048;-58
2023/04/27 08:44:45;;;;;;;5.63;3.58;;;;;;;31.72;15.90;100715.72;5044796;28;20433;-58
2023/04/27 08:47:13;;;;;;;4.75;2.90;;;;;;;32.48;14.87;100720.03;5040109;28;20425;-58
2023/04/27 08:49:41;;;;;;;5.80;3.28;;;;;;;33.72;13.88;100707.59;5039859;28;20059;-58
2023/04/27 08:52:14;;;;;;;3.72;2.50;;;;;;;34.18;14.36;100702.13;5047303;28;20057;-58
2023/04/27 08:54:42;;;;;;;6.05;2.95;;;;;;;34.64;14.24;100708.16;5047874;28;20079;-58
2023/04/27 08:57:10;;;;;;;5.75;2.95;;;;;;;35.71;12.77;100701.94;5046448;28;20506;-58
2023/04/27 08:59:38;;;;;;;6.28;3.05;;;;;;;36.40;13.03;100702.44;5039316;28;20474;-63
2023/04/27 09:02:06;;;;;;;5.30;3.33;;;;;;;36.29;12.79;100709.56;5039171;28;20137;-63
2023/04/27 09:04:39;;;;;;;4.60;2.37;;;;;;;37.16;11.89;100709.81;5033892;28;20049;-63
2023/04/27 09:07:18;;;;;;;5.50;2.40;;;;;;;38.00;11.28;100703.28;5045979;28;20494;-64
2023/04/27 09:09:47;;;;;;;;;;;;;;;37.60;10.59;100708.38;5041291;28;20048;-64
2023/04/27 09:12:16;;;;;;;3.90;2.80;;;;;;;36.40;11.80;100709.03;5043443;28;19920;-64
2023/04/27 09:14:43;;;;;;;4.55;2.92;;;;;;;35.49;12.26;100707.84;5038345;28;20057;-64
2023/04/27 09:17:11;;;;;;;4.55;2.95;;;;;;;36.35;11.88;100701.81;5041975;28;20501;-64
2023/04/27 09:19:38;;;;;;;3.88;2.53;;;;;;;37.03;11.03;100694.72;5042473;28;20064;-64
2023/04/27 09:22:07;;;;;;;4.30;2.70;;;;;;;36.84;10.71;100702.72;5040938;28;20433;-64
2023/04/27 09:24:37;;;;;;;5.18;2.35;;;;;;;36.75;11.49;100694.09;5043076;28;20049;-64
2023/04/27 09:27:04;;;;;;;5.10;2.22;;;;;;;36.85;11.57;100695.63;5047302;28;20052;-58
2023/04/27 09:29:36;;;;;;;5.57;2.42;;;;;;;37.39;10.90;100692.84;5036672;28;20490;-62
2023/04/27 09:32:15;;;;;;;4.30;2.70;;;;;;;37.54;11.38;100690.78;5040487;28;20068;-62
2023/04/27 09:34:43;;;;;;;5.90;3.00;;;;;;;38.00;11.11;100677.13;5042235;28;20410;-58
2023/04/27 09:37:10;;;;;;;5.57;2.80;;;;;;;37.76;11.18;100673.00;5040003;28;20057;-59
2023/04/27 09:39:40;;;;;;;3.92;2.10;;;;;;;38.53;10.43;100668.25;5044111;28;20061;-63
2023/04/27 09:42:08;;;;;;;3.25;2.20;;;;;;;38.61;10.37;100668.63;5040717;28;20337;-63
2023/04/27 09:44:36;;;;;;;5.00;2.45;;;;;;;39.47;9.85;100674.31;5040995;28;20069;-64
2023/04/27 09:47:03;;;;;;;5.28;2.90;;;;;;;39.63;9.47;100658.31;5032878;28;20056;-64
2023/04/27 09:49:34;;;;;;;4.43;3.25;;;;;;;39.63;9.49;100664.97;5037207;28;20099;-64
2023/04/27 09:52:01;;;;;;;4.22;3.13;;;;;;;39.12;9.54;100657.72;5043769;28;20056;-64
2023/04/27 09:54:33;;;;;;;5.47;3.08;;;;;;;37.40;10.80;100658.78;5046485;28;20501;-63
2023/04/27 09:57:10;;;;;;;6.05;3.33;;;;;;;38.19;10.47;100649.44;5046907;28;20053;-59
2023/04/27 10:00:01;;;;;;;3.83;2.97;;;;;;;38.73;10.06;100655.84;5044074;28;20938;-59
2023/04/27 10:02:38;;;;;;;3.63;2.40;;;;;;;39.42;9.66;100649.63;5042965;28;20860;-59
2023/04/27 10:05:29;;;;;;;3.20;2.20;;;;;;;40.08;8.59;100638.38;5035498;28;20061;-59
2023/04/27 10:07:57;;;;;;;3.90;2.80;;;;;;;39.70;8.86;100652.03;5044305;28;20060;-58
2023/04/27 10:10:24;;;;;;;6.60;3.20;;;;;;;38.66;10.15;100652.56;5039200;28;20070;-59
2023/04/27 10:13:02;;;;;;;4.47;3.07;;;;;;;39.22;9.68;100653.34;5037605;28;20057;-59
2023/04/27 10:15:29;;;;;;;4.22;2.60;;;;;;;40.22;8.76;100646.16;5039632;28;20049;-58
2023/04/27 10:18:04;;;;;;;3.97;2.87;;;;;;;40.53;9.66;100645.38;5040123;28;20073;-58
2023/04/27 10:20:33;;;;;;;5.25;3.05;;;;;;;40.87;9.11;100647.72;5040561;28;20056;-58
2023/04/27 10:23:00;;;;;;;5.22;3.72;;;;;;;40.65;8.76;100640.38;5041123;28;20052;-58
2023/04/27 10:25:29;;;;;;;5.40;3.33;;;;;;;38.62;9.47;100646.16;5042585;28;20063;-58
2023/04/27 10:28:00;;;;;;;4.43;3.30;;;;;;;38.87;9.79;100639.63;5041962;28;20053;-58
2023/04/27 10:30:33;;;;;;;4.82;2.50;;;;;;;38.41;9.22;100630.72;5040980;28;20056;-58
2023/04/27 10:33:08;;;;;;;5.28;3.00;;;;;;;38.97;9.39;100626.53;5039619;28;20057;-63
2023/04/27 10:35:37;;;;;;;3.72;2.88;;;;;;;37.84;9.58;100629.81;5039636;28;20099;-63
2023/04/27 10:38:08;;;;;;;5.63;3.08;;;;;;;36.90;9.69;100633.19;5034688;28;20049;-63
2023/04/27 10:40:36;;;;;;;3.80;2.78;;;;;;;36.33;10.63;100628.16;5037990;28;20049;-63
2023/04/27 10:43:12;;;;;;;3.47;2.70;;;;;;;37.06;10.76;100612.38;5039745;28;20057;-63
2023/04/27 10:45:40;;;;;;;4.47;2.83;;;;;;;36.66;10.45;100612.84;5037571;28;20053;-63
2023/04/27 10:48:08;;;;;;;4.43;3.30;;;;;;;36.53;10.23;100613.84;5041918;28;20155;-63
2023/04/27 10:50:35;;;;;;;6.10;3.00;;;;;;;36.28;10.52;100615.13;5040153;28;20052;-64
2023/04/27 10:53:04;;;;;;;5.40;3.50;;;;;;;34.97;10.80;100612.88;5047898;28;20060;-64
2023/04/27 10:55:33;;;;;;;6.07;2.85;;;;;;;33.58;12.08;100619.38;5038171;28;20060;-59
2023/04/27 10:58:01;;;;;;;4.10;3.25;;;;;;;33.95;12.02;100608.84;5045025;28;20064;-59
2023/04/27 11:00:31;;;;;;;5.55;3.10;;;;;;;35.68;10.73;100605.19;5038810;28;20064;-59
2023/04/27 11:03:10;;;;;;;5.35;3.13;;;;;;;35.83;10.42;100608.19;5042109;28;20053;-59
2023/04/27 11:05:38;;;;;;;4.63;3.13;;;;;;;36.28;10.33;100594.81;5029348;28;20084;-59
2023/04/27 11:08:07;;;;;;;4.28;3.17;;;;;;;37.80;10.22;100594.31;5047554;28;20083;-59
2023/04/27 11:10:35;;;;;;;5.13;3.03;;;;;;;38.21;9.69;100591.53;5043030;28;20053;-60
2023/04/27 11:13:10;;;;;;;3.85;2.75;;;;;;;38.46;9.71;100580.53;5045835;28;20053;-59
2023/04/27 11:15:49;;;;;;;2.95;2.65;;;;;;;38.75;9.67;100597.13;5043580;28;20050;-60
2023/04/27 11:18:18;;;;;;;4.20;2.72;;;;;;;38.93;9.16;100593.09;5037506;28;20045;-59
2023/04/27 11:20:48;;;;;;;4.97;3.33;;;;;;;38.62;9.68;100588.75;5039024;28;20493;-60
2023/04/27 11:23:24;;;;;;;4.13;3.15;;;;;;;38.90;9.55;100589.09;5029837;28;20060;-60
2023/04/27 11:25:51;;;;;;;3.88;3.08;;;;;;;39.01;9.56;100591.38;5036372;28;20448;-60
2023/04/27 11:28:19;;;;;;;3.57;2.67;;;;;;;39.37;9.51;100589.94;5039066;28;20052;-60
2023/04/27 11:30:48;;;;;;;4.68;3.17;;;;;;;39.11;9.20;100583.28;5040204;28;20498;-65
2023/04/27 11:33:15;;;;;;;5.40;3.15;;;;;;;38.66;9.46;100588.50;5042670;28;20998;-65
2023/04/27 11:35:42;;;;;;;4.72;2.92;;;;;;;38.45;9.13;100585.56;5042122;28;20068;-65